Leicester, North Carolina
Current Conditions -  °F | °C
As of 6:54 AM on Wednesday 28 Jan 2015 (Local Time) from KAVL Reporting Station
Clear Clear  
Wind Chill: 10°   Ceiling: Unl
Heat Index: 22°   Visibility: 10mi
Dew Point: 14°   Wind: 13mph
Humidity: 72%   Direction: 360°N
Pressure: 30.16"   Gusts: 22mph
Location:  35.65°N, 82.7°W
Report Text: KAVL 281154Z 36011G19KT 10SM CLR M06/M10 A3016 RMK AO2 SLP229 T10561100 11028 21056 53033
Loading
Personal Weather Stations






























Interactive Weather Map New forecast layout! Learn more

10-Day Weather Forecast

Advertisements
Track Severe Weather on mobile